createdAt,value
2023-02-05T00:00:19.411Z,21.07
2023-02-05T00:02:46.307Z,26.17
2023-02-05T00:05:12.900Z,26.77
2023-02-05T00:07:39.417Z,22.50
2023-02-05T00:10:06.352Z,24.80
2023-02-05T00:12:32.788Z,23.07
2023-02-05T00:14:59.292Z,19.47
2023-02-05T00:17:25.799Z,25.57
2023-02-05T00:19:52.242Z,24.27
2023-02-05T00:22:18.743Z,22.37
2023-02-05T00:24:45.227Z,22.47
2023-02-05T00:27:11.839Z,22.40
2023-02-05T00:29:38.371Z,20.53
2023-02-05T00:32:04.869Z,21.77
2023-02-05T00:34:31.401Z,23.33
2023-02-05T00:36:57.904Z,24.10
2023-02-05T00:39:24.385Z,24.80
2023-02-05T00:41:50.833Z,21.90
2023-02-05T00:44:17.575Z,20.63
2023-02-05T00:46:44.127Z,17.10
2023-02-05T00:49:10.619Z,21.33
2023-02-05T00:51:37.153Z,22.43
2023-02-05T00:54:03.705Z,17.03
2023-02-05T00:56:30.420Z,18.20
2023-02-05T00:58:57.680Z,17.93
2023-02-05T01:01:24.261Z,18.97
2023-02-05T01:03:51.207Z,19.07
2023-02-05T01:06:17.942Z,19.83
2023-02-05T01:08:44.431Z,20.73
2023-02-05T01:11:13.761Z,18.63
2023-02-05T01:13:40.204Z,21.00
2023-02-05T01:16:08.403Z,19.03
2023-02-05T01:18:34.968Z,17.57
2023-02-05T01:21:01.491Z,18.13
2023-02-05T01:23:28.087Z,15.37
2023-02-05T01:25:54.586Z,16.97
2023-02-05T01:28:21.144Z,16.40
2023-02-05T01:30:49.304Z,16.87
2023-02-05T01:33:16.219Z,17.87
2023-02-05T01:35:44.739Z,17.70
2023-02-05T01:38:12.721Z,18.63
2023-02-05T01:40:39.804Z,17.57
2023-02-05T01:43:12.011Z,15.40
2023-02-05T01:45:50.958Z,14.33
2023-02-05T01:48:28.292Z,17.63
2023-02-05T01:50:57.608Z,18.60
2023-02-05T01:53:30.299Z,19.83
2023-02-05T01:56:03.605Z,15.17
2023-02-05T01:58:32.777Z,17.43
2023-02-05T02:00:59.521Z,16.10
2023-02-05T02:03:27.956Z,15.13
2023-02-05T02:05:55.519Z,17.90
2023-02-05T02:08:22.416Z,19.03
2023-02-05T02:10:50.249Z,16.30
2023-02-05T02:13:18.670Z,15.03
2023-02-05T02:15:45.375Z,17.20
2023-02-05T02:18:28.024Z,19.30
2023-02-05T02:21:13.169Z,16.10
2023-02-05T02:23:59.619Z,13.17
2023-02-05T02:26:40.666Z,14.10
2023-02-05T02:29:08.642Z,16.53
2023-02-05T02:31:42.404Z,14.33
2023-02-05T02:34:33.441Z,16.07
2023-02-05T02:37:08.773Z,17.20
2023-02-05T02:39:42.422Z,15.27
2023-02-05T02:42:18.514Z,11.97
2023-02-05T02:44:51.172Z,16.27
2023-02-05T02:47:20.607Z,13.93
2023-02-05T02:49:54.058Z,13.03
2023-02-05T02:52:21.638Z,13.40
2023-02-05T02:54:50.560Z,10.30
2023-02-05T02:57:18.851Z,13.33
2023-02-05T02:59:47.680Z,14.10
2023-02-05T03:02:18.279Z,14.67
2023-02-05T03:04:49.284Z,14.13
2023-02-05T03:07:22.567Z,14.50
2023-02-05T03:10:04.626Z,15.00
2023-02-05T03:12:31.583Z,12.70
2023-02-05T03:14:58.138Z,15.97
2023-02-05T03:17:25.136Z,12.90
2023-02-05T03:19:58.058Z,13.57
2023-02-05T03:22:24.647Z,12.90
2023-02-05T03:24:51.181Z,17.33
2023-02-05T03:27:17.716Z,13.93
2023-02-05T03:29:45.052Z,13.23
2023-02-05T03:32:35.347Z,11.87
2023-02-05T03:35:13.444Z,17.80
2023-02-05T03:37:58.739Z,14.83
2023-02-05T03:40:33.211Z,13.90
2023-02-05T03:43:21.204Z,13.40
2023-02-05T03:46:38.512Z,12.87
2023-02-05T03:49:41.115Z,14.20
2023-02-05T03:52:16.021Z,11.07
2023-02-05T03:54:57.608Z,13.70
2023-02-05T03:57:32.814Z,14.77
2023-02-05T03:59:59.336Z,9.57
2023-02-05T04:02:25.952Z,11.40
2023-02-05T04:04:52.465Z,13.87
2023-02-05T04:07:19.052Z,14.23
2023-02-05T04:09:45.512Z,16.53
2023-02-05T04:12:11.990Z,9.73
2023-02-05T04:14:38.582Z,11.37
2023-02-05T04:17:05.079Z,11.83
2023-02-05T04:19:31.572Z,10.20
2023-02-05T04:21:58.069Z,11.90
2023-02-05T04:24:25.295Z,11.67
2023-02-05T04:26:52.354Z,11.43
2023-02-05T04:29:18.897Z,14.00
2023-02-05T04:31:45.603Z,13.27
2023-02-05T04:34:14.788Z,14.07
2023-02-05T04:36:41.339Z,12.53
2023-02-05T04:39:07.874Z,16.70
2023-02-05T04:41:34.486Z,13.70
2023-02-05T04:44:01.000Z,13.37
2023-02-05T04:46:27.475Z,12.77
2023-02-05T04:48:53.950Z,14.03
2023-02-05T04:51:20.422Z,13.90
2023-02-05T04:53:47.183Z,11.93
2023-02-05T04:56:16.372Z,9.77
2023-02-05T04:58:43.734Z,10.80
2023-02-05T05:01:15.760Z,13.30
2023-02-05T05:03:42.920Z,12.07
2023-02-05T05:06:09.637Z,11.47
2023-02-05T05:08:36.310Z,11.20
2023-02-05T05:11:07.564Z,13.67
2023-02-05T05:13:35.429Z,10.47
2023-02-05T05:16:02.159Z,13.57
2023-02-05T05:18:28.840Z,11.83
2023-02-05T05:20:55.320Z,13.60
2023-02-05T05:23:21.872Z,13.53
2023-02-05T05:25:48.844Z,15.20
2023-02-05T05:28:16.392Z,11.00
2023-02-05T05:30:45.375Z,11.77
2023-02-05T05:33:12.807Z,10.37
2023-02-05T05:35:39.397Z,10.53
2023-02-05T05:38:06.094Z,14.33
2023-02-05T05:40:51.187Z,13.07
2023-02-05T05:43:38.770Z,12.93
2023-02-05T05:46:06.558Z,13.93
2023-02-05T05:48:33.225Z,12.77
2023-02-05T05:50:59.677Z,10.47
2023-02-05T05:53:26.166Z,10.20
2023-02-05T05:55:52.619Z,12.80
2023-02-05T05:58:19.180Z,11.07
2023-02-05T06:00:45.742Z,12.20
2023-02-05T06:03:13.193Z,11.60
2023-02-05T06:05:39.680Z,12.50
2023-02-05T06:08:06.405Z,12.77
2023-02-05T06:10:33.247Z,10.97
2023-02-05T06:13:00.156Z,12.60
2023-02-05T06:15:29.792Z,10.23
2023-02-05T06:17:56.355Z,13.07
2023-02-05T06:20:22.891Z,10.20
2023-02-05T06:22:49.371Z,11.20
2023-02-05T06:25:16.084Z,12.83
2023-02-05T06:27:42.688Z,12.47
2023-02-05T06:30:10.457Z,12.97
2023-02-05T06:32:37.137Z,12.07
2023-02-05T06:35:03.754Z,12.07
2023-02-05T06:37:46.125Z,13.67
2023-02-05T06:40:15.573Z,12.83
2023-02-05T06:42:42.239Z,12.60
2023-02-05T06:45:10.065Z,11.20
2023-02-05T06:47:37.226Z,12.17
2023-02-05T06:50:05.076Z,12.93
2023-02-05T06:52:31.633Z,12.27
2023-02-05T06:54:58.210Z,15.53
2023-02-05T06:57:24.828Z,12.77
2023-02-05T06:59:51.278Z,13.23
2023-02-05T07:02:17.822Z,10.17
2023-02-05T07:04:44.269Z,10.90
2023-02-05T07:07:10.699Z,12.67
2023-02-05T07:09:37.456Z,11.77
2023-02-05T07:12:04.118Z,13.57
2023-02-05T07:14:31.516Z,12.50
2023-02-05T07:16:58.069Z,11.57
2023-02-05T07:19:24.560Z,11.47
2023-02-05T07:21:51.179Z,11.03
2023-02-05T07:24:17.685Z,13.13
2023-02-05T07:26:45.281Z,11.70
2023-02-05T07:29:12.052Z,11.57
2023-02-05T07:31:38.907Z,13.23
2023-02-05T07:34:05.486Z,9.23
2023-02-05T07:36:31.964Z,10.97
2023-02-05T07:38:58.553Z,11.87
2023-02-05T07:41:26.800Z,10.47
2023-02-05T07:43:54.469Z,13.23
2023-02-05T07:46:21.936Z,11.37
2023-02-05T07:48:48.501Z,9.60
2023-02-05T07:51:20.010Z,10.00
2023-02-05T07:53:47.019Z,12.20
2023-02-05T07:56:13.834Z,12.80
2023-02-05T07:58:40.490Z,10.90
2023-02-05T08:01:07.298Z,10.43
2023-02-05T08:03:34.657Z,9.40
2023-02-05T08:06:08.157Z,11.53
2023-02-05T08:08:34.877Z,10.67
2023-02-05T08:11:05.970Z,10.50
2023-02-05T08:13:33.765Z,10.53
2023-02-05T08:16:04.917Z,10.97
2023-02-05T08:18:31.597Z,12.57
2023-02-05T08:20:58.071Z,11.57
2023-02-05T08:23:24.626Z,10.13
2023-02-05T08:25:55.109Z,10.93
2023-02-05T08:28:22.356Z,10.50
2023-02-05T08:30:48.943Z,13.57
2023-02-05T08:33:15.612Z,9.20
2023-02-05T08:35:42.094Z,12.17
2023-02-05T08:38:08.610Z,12.07
2023-02-05T08:40:35.829Z,9.80
2023-02-05T08:43:02.722Z,15.00
2023-02-05T08:45:30.323Z,11.93
2023-02-05T08:47:56.978Z,12.67
2023-02-05T08:50:23.808Z,9.93
2023-02-05T08:52:50.426Z,12.33
2023-02-05T08:55:20.818Z,10.53
2023-02-05T08:57:47.396Z,11.93
2023-02-05T09:00:15.156Z,14.10
2023-02-05T09:02:42.983Z,13.03
2023-02-05T09:05:09.972Z,12.57
2023-02-05T09:07:40.834Z,11.00
2023-02-05T09:10:12.194Z,15.10
2023-02-05T09:12:39.026Z,11.90
2023-02-05T09:15:06.578Z,14.43
2023-02-05T09:17:33.121Z,10.27
2023-02-05T09:19:59.760Z,11.33
2023-02-05T09:22:26.237Z,12.07
2023-02-05T09:24:53.096Z,11.03
2023-02-05T09:27:19.563Z,10.00
2023-02-05T09:29:46.141Z,9.10
2023-02-05T09:32:13.473Z,9.07
2023-02-05T09:34:40.039Z,9.73
2023-02-05T09:37:06.569Z,10.67
2023-02-05T09:42:22.034Z,9.37
2023-02-05T09:45:03.896Z,12.23
2023-02-05T09:47:36.614Z,8.70
2023-02-05T09:50:29.185Z,10.87
2023-02-05T09:53:05.950Z,7.73
2023-02-05T09:55:44.882Z,7.30
2023-02-05T09:58:15.235Z,9.13
2023-02-05T10:01:12.917Z,10.37
2023-02-05T10:03:48.691Z,9.70
2023-02-05T10:06:33.745Z,9.63
2023-02-05T10:09:17.910Z,12.53
2023-02-05T10:12:28.844Z,9.87
2023-02-05T10:15:16.025Z,9.80
2023-02-05T10:17:54.961Z,9.53
2023-02-05T10:20:27.142Z,9.17
2023-02-05T10:23:12.909Z,8.83
2023-02-05T10:25:51.084Z,9.70
2023-02-05T10:28:37.011Z,11.70
2023-02-05T10:31:25.142Z,10.50
2023-02-05T10:33:59.948Z,11.13
2023-02-05T10:36:27.019Z,9.77
2023-02-05T10:38:55.931Z,8.47
2023-02-05T10:41:45.234Z,10.10
2023-02-05T10:44:17.856Z,10.07
2023-02-05T10:46:51.675Z,10.70
2023-02-05T10:49:42.710Z,9.60
2023-02-05T10:52:13.830Z,9.60
2023-02-05T10:54:41.640Z,11.17
2023-02-05T10:57:19.186Z,11.00
2023-02-05T10:59:54.451Z,10.90
2023-02-05T11:02:22.178Z,13.83
2023-02-05T11:04:53.262Z,13.03
2023-02-05T11:07:30.502Z,12.07
2023-02-05T11:10:23.508Z,12.40
2023-02-05T11:12:53.525Z,11.30
2023-02-05T11:15:26.176Z,13.13
2023-02-05T11:17:57.445Z,11.90
2023-02-05T11:20:31.453Z,11.77
2023-02-05T11:23:20.303Z,12.87
2023-02-05T11:25:58.906Z,11.73
2023-02-05T11:28:30.186Z,12.90
2023-02-05T11:30:57.532Z,11.73
2023-02-05T11:33:27.621Z,13.00
2023-02-05T11:36:02.072Z,9.13
2023-02-05T11:38:42.338Z,11.77
2023-02-05T11:41:10.228Z,15.50
2023-02-05T11:43:49.826Z,13.97
2023-02-05T11:46:24.510Z,9.80
2023-02-05T11:48:57.977Z,11.57
2023-02-05T11:51:36.391Z,10.40
2023-02-05T11:54:08.986Z,10.40
2023-02-05T11:56:35.485Z,10.17
2023-02-05T11:59:05.317Z,9.20
2023-02-05T12:01:34.095Z,9.63
2023-02-05T12:04:14.998Z,12.73
2023-02-05T12:06:46.325Z,10.40
2023-02-05T12:09:19.451Z,7.63
2023-02-05T12:12:11.863Z,9.17
2023-02-05T12:15:23.848Z,9.67
2023-02-05T12:18:37.203Z,9.00
2023-02-05T12:21:06.474Z,8.30
2023-02-05T12:23:35.959Z,10.43
2023-02-05T12:26:17.787Z,10.10
2023-02-05T12:29:15.225Z,10.13
2023-02-05T12:32:13.888Z,8.87
2023-02-05T12:34:49.085Z,10.43
2023-02-05T12:37:27.740Z,8.77
2023-02-05T12:39:59.329Z,9.83
2023-02-05T12:42:36.715Z,9.23
2023-02-05T12:45:08.336Z,12.63
2023-02-05T12:47:37.551Z,9.23
2023-02-05T12:50:25.284Z,7.67
2023-02-05T12:53:21.597Z,9.47
2023-02-05T12:55:50.865Z,10.57
2023-02-05T12:58:19.044Z,9.43
2023-02-05T13:00:51.082Z,8.10
2023-02-05T13:03:32.773Z,8.73
2023-02-05T13:06:06.612Z,12.40
2023-02-05T13:08:47.096Z,9.67
2023-02-05T13:11:26.926Z,10.27
2023-02-05T13:13:58.180Z,12.47
2023-02-05T13:16:37.821Z,7.90
2023-02-05T13:19:14.677Z,7.50
2023-02-05T13:22:00.433Z,7.63
2023-02-05T13:24:52.864Z,6.70
2023-02-05T13:27:44.254Z,11.40
2023-02-05T13:30:20.813Z,8.37
2023-02-05T13:32:50.344Z,6.93
2023-02-05T13:35:16.831Z,7.27
2023-02-05T13:37:55.530Z,5.70
2023-02-05T13:40:45.768Z,5.47
2023-02-05T13:43:35.156Z,6.10
2023-02-05T13:46:24.889Z,6.37
2023-02-05T13:49:09.258Z,6.50
2023-02-05T13:51:38.912Z,6.57
2023-02-05T13:54:39.127Z,8.07
2023-02-05T13:57:33.429Z,6.13
2023-02-05T14:00:00.480Z,5.33
2023-02-05T14:02:46.713Z,7.03
2023-02-05T14:05:13.753Z,12.03
2023-02-05T14:07:49.002Z,8.87
2023-02-05T14:10:36.407Z,8.17
2023-02-05T14:13:08.759Z,7.53
2023-02-05T14:15:40.713Z,6.90
2023-02-05T14:18:10.219Z,7.80
2023-02-05T14:20:42.034Z,10.13
2023-02-05T14:23:45.956Z,6.47
2023-02-05T14:26:13.154Z,6.07
2023-02-05T14:28:48.508Z,8.47
2023-02-05T14:31:46.453Z,9.23
2023-02-05T14:34:34.357Z,7.07
2023-02-05T14:37:01.221Z,8.33
2023-02-05T14:39:35.406Z,8.33
2023-02-05T14:42:05.513Z,8.10
2023-02-05T14:44:34.363Z,5.53
2023-02-05T14:47:19.657Z,4.53
2023-02-05T14:49:48.073Z,6.47
2023-02-05T14:52:34.320Z,5.00
2023-02-05T14:55:16.788Z,7.77
2023-02-05T14:57:52.141Z,7.80
2023-02-05T15:00:36.261Z,6.30
2023-02-05T15:03:16.986Z,5.93
2023-02-05T15:05:43.470Z,9.03
2023-02-05T15:08:28.188Z,6.63
2023-02-05T15:11:49.217Z,7.83
2023-02-05T15:14:21.602Z,7.27
2023-02-05T15:17:13.978Z,10.27
2023-02-05T15:19:43.449Z,10.13
2023-02-05T15:22:19.964Z,11.10
2023-02-05T15:24:48.502Z,7.63
2023-02-05T15:27:19.162Z,11.13
2023-02-05T15:29:48.074Z,10.40
2023-02-05T15:32:19.206Z,8.63
2023-02-05T15:34:57.856Z,10.77
2023-02-05T15:37:31.555Z,10.80
2023-02-05T15:40:11.766Z,9.83
2023-02-05T15:42:41.535Z,11.07
2023-02-05T15:45:24.724Z,9.23
2023-02-05T15:48:00.251Z,8.97
2023-02-05T15:50:26.960Z,15.37
2023-02-05T15:52:53.556Z,11.47
2023-02-05T15:55:22.039Z,10.93
2023-02-05T15:57:48.740Z,8.30
2023-02-05T16:00:25.255Z,9.50
2023-02-05T16:02:57.704Z,11.87
2023-02-05T16:05:25.345Z,8.93
2023-02-05T16:07:57.138Z,9.50
2023-02-05T16:10:29.282Z,11.50
2023-02-05T16:13:05.395Z,12.67
2023-02-05T16:15:41.073Z,10.60
2023-02-05T16:18:19.836Z,9.23
2023-02-05T16:20:53.348Z,9.63
2023-02-05T16:23:32.590Z,11.10
2023-02-05T16:26:18.201Z,12.37
2023-02-05T16:28:48.761Z,11.00
2023-02-05T16:31:17.335Z,8.13
2023-02-05T16:33:46.380Z,9.50
2023-02-05T16:36:20.008Z,8.33
2023-02-05T16:38:50.940Z,8.93
2023-02-05T16:41:31.291Z,10.67
2023-02-05T16:43:59.396Z,11.27
2023-02-05T16:46:28.765Z,8.67
2023-02-05T16:49:00.566Z,10.47
2023-02-05T16:51:37.385Z,12.43
2023-02-05T16:54:31.697Z,11.47
2023-02-05T16:57:00.940Z,12.03
2023-02-05T16:59:34.749Z,13.60
2023-02-05T17:02:03.157Z,11.47
2023-02-05T17:04:34.324Z,11.07
2023-02-05T17:07:01.996Z,16.23
2023-02-05T17:09:34.983Z,14.37
2023-02-05T17:12:19.389Z,16.37
2023-02-05T17:15:16.112Z,18.83
2023-02-05T17:17:51.460Z,15.13
2023-02-05T17:20:19.847Z,15.77
2023-02-05T17:23:07.286Z,17.07
2023-02-05T17:25:51.878Z,16.13
2023-02-05T17:28:25.486Z,18.93
2023-02-05T17:30:54.185Z,18.10
2023-02-05T17:33:23.231Z,16.27
2023-02-05T17:35:50.068Z,20.07
2023-02-05T17:38:17.366Z,18.87
2023-02-05T17:40:44.310Z,18.50
2023-02-05T17:43:10.917Z,17.23
2023-02-05T17:45:43.240Z,19.47
2023-02-05T17:48:10.291Z,16.47
2023-02-05T17:50:37.902Z,17.70
2023-02-05T17:53:04.538Z,19.03
2023-02-05T17:55:31.244Z,15.67
2023-02-05T17:57:57.981Z,19.03
2023-02-05T18:00:27.602Z,19.13
2023-02-05T18:02:54.617Z,20.40
2023-02-05T18:05:21.864Z,21.33
2023-02-05T18:07:50.051Z,22.53
2023-02-05T18:10:19.528Z,20.17
2023-02-05T18:12:46.037Z,23.10
2023-02-05T18:15:13.524Z,30.63
2023-02-05T18:17:41.195Z,22.40
2023-02-05T18:20:08.861Z,30.00
2023-02-05T18:22:35.347Z,45.20
2023-02-05T18:25:01.895Z,43.33
2023-02-05T18:27:28.694Z,33.03
2023-02-05T18:29:55.292Z,33.77
2023-02-05T18:32:22.610Z,35.67
2023-02-05T18:34:49.378Z,34.60
2023-02-05T18:37:16.619Z,26.67
2023-02-05T18:39:43.706Z,41.33
2023-02-05T18:42:11.684Z,30.00
2023-02-05T18:44:38.752Z,33.93
2023-02-05T18:47:06.012Z,38.20
2023-02-05T18:49:33.668Z,42.27
2023-02-05T18:52:00.733Z,49.27
2023-02-05T18:54:27.360Z,62.13
2023-02-05T18:56:54.809Z,38.97
2023-02-05T18:59:24.097Z,62.00
2023-02-05T19:01:51.209Z,116.17
2023-02-05T19:04:21.038Z,124.40
2023-02-05T19:06:52.437Z,92.60
2023-02-05T19:09:23.664Z,102.17
2023-02-05T19:11:50.890Z,78.40
2023-02-05T19:14:18.972Z,60.00
2023-02-05T19:16:47.082Z,59.13
2023-02-05T19:19:16.373Z,55.00
2023-02-05T19:21:44.877Z,55.93
2023-02-05T19:24:13.818Z,55.03
2023-02-05T19:26:45.082Z,62.17
2023-02-05T19:29:16.695Z,61.53
2023-02-05T19:31:44.011Z,92.67
2023-02-05T19:34:11.957Z,86.40
2023-02-05T19:36:38.812Z,79.03
2023-02-05T19:39:07.424Z,72.60
2023-02-05T19:41:35.230Z,67.37
2023-02-05T19:44:04.170Z,74.37
2023-02-05T19:46:39.719Z,71.93
2023-02-05T19:49:11.590Z,72.07
2023-02-05T19:51:38.342Z,82.50
2023-02-05T19:54:06.632Z,95.90
2023-02-05T19:56:35.631Z,104.67
2023-02-05T19:59:02.122Z,98.90
2023-02-05T20:01:30.968Z,103.80
2023-02-05T20:03:59.770Z,111.03
2023-02-05T20:06:29.593Z,131.10
2023-02-05T20:08:56.577Z,98.27
2023-02-05T20:11:23.376Z,90.80
2023-02-05T20:13:50.396Z,87.77
2023-02-05T20:16:21.161Z,83.73
2023-02-05T20:18:52.368Z,83.43
2023-02-05T20:21:19.175Z,87.67
2023-02-05T20:23:46.951Z,87.90
2023-02-05T20:26:14.600Z,98.60
2023-02-05T20:29:11.993Z,76.80
2023-02-05T20:31:42.933Z,81.47
2023-02-05T20:34:18.618Z,93.37
2023-02-05T20:36:47.037Z,109.20
2023-02-05T20:39:14.241Z,103.00
2023-02-05T20:41:40.916Z,112.23
2023-02-05T20:44:07.580Z,113.97
2023-02-05T20:46:34.656Z,121.57
2023-02-05T20:49:01.193Z,120.17
2023-02-05T20:51:27.920Z,118.87
2023-02-05T20:53:58.671Z,120.83
2023-02-05T20:56:27.247Z,108.60
2023-02-05T20:58:54.600Z,121.53
2023-02-05T21:01:23.428Z,109.93
2023-02-05T21:03:52.441Z,111.47
2023-02-05T21:06:20.495Z,114.50
2023-02-05T21:08:47.879Z,104.97
2023-02-05T21:11:16.065Z,112.87
2023-02-05T21:13:43.580Z,113.70
2023-02-05T21:16:11.754Z,119.67
2023-02-05T21:18:40.292Z,113.50
2023-02-05T21:21:12.878Z,113.43
2023-02-05T21:23:40.167Z,96.27
2023-02-05T21:26:07.366Z,116.90
2023-02-05T21:28:34.343Z,99.40
2023-02-05T21:31:06.178Z,103.27
2023-02-05T21:33:33.341Z,102.40
2023-02-05T21:36:08.636Z,94.47
2023-02-05T21:38:39.681Z,116.73
2023-02-05T21:41:08.200Z,116.87
2023-02-05T21:43:35.090Z,107.67
2023-02-05T21:46:06.701Z,110.63
2023-02-05T21:48:33.494Z,116.50
2023-02-05T21:51:00.273Z,114.47
2023-02-05T21:53:27.810Z,123.93
2023-02-05T21:55:54.517Z,121.13
2023-02-05T21:58:21.719Z,119.20
2023-02-05T22:00:48.212Z,126.77
2023-02-05T22:03:14.698Z,121.33
2023-02-05T22:05:41.173Z,116.53
2023-02-05T22:08:11.603Z,110.60
2023-02-05T22:10:38.348Z,115.10
2023-02-05T22:13:05.123Z,124.93
2023-02-05T22:15:31.665Z,125.60
2023-02-05T22:17:58.185Z,127.07
2023-02-05T22:20:24.648Z,117.33
2023-02-05T22:22:51.104Z,113.17
2023-02-05T22:25:17.882Z,120.43
2023-02-05T22:27:44.609Z,126.77
2023-02-05T22:30:11.772Z,116.23
2023-02-05T22:32:38.252Z,121.53
2023-02-05T22:35:04.926Z,106.67
2023-02-05T22:37:31.454Z,110.23
2023-02-05T22:39:57.956Z,111.47
2023-02-05T22:42:24.848Z,118.67
2023-02-05T22:44:51.297Z,109.70
2023-02-05T22:47:17.947Z,115.57
2023-02-05T22:49:44.469Z,115.60
2023-02-05T22:52:10.930Z,137.70
2023-02-05T22:54:37.602Z,135.40
2023-02-05T22:57:04.250Z,124.57
2023-02-05T22:59:30.686Z,121.33
2023-02-05T23:01:57.504Z,119.73
2023-02-05T23:04:24.068Z,141.80
2023-02-05T23:06:50.505Z,130.13
2023-02-05T23:09:18.525Z,122.87
2023-02-05T23:11:45.438Z,131.23
2023-02-05T23:14:14.442Z,128.57
2023-02-05T23:16:42.525Z,129.63
2023-02-05T23:19:19.667Z,128.47
2023-02-05T23:21:47.005Z,135.53
2023-02-05T23:24:13.648Z,140.10
2023-02-05T23:26:42.900Z,138.23
2023-02-05T23:29:10.976Z,158.47
2023-02-05T23:31:37.645Z,152.87
2023-02-05T23:34:04.587Z,172.10
2023-02-05T23:36:31.169Z,163.37
2023-02-05T23:38:57.676Z,155.13
2023-02-05T23:41:36.566Z,157.00
2023-02-05T23:44:10.521Z,155.53
2023-02-05T23:46:37.556Z,161.17
2023-02-05T23:49:04.972Z,161.97
2023-02-05T23:51:32.103Z,159.13
2023-02-05T23:53:58.969Z,167.13
2023-02-05T23:56:25.809Z,144.23
2023-02-05T23:58:52.348Z,155.37
